< < Back
Terminal Aerodrome Forecast


Current Version              Previous Versions:   1  2  3  4  5  6  7  8  9  

Terminal Aerodrome Forecast

152
FTUS44 KBMX 220700 AAA
TAFMGM
TAF AMD
KMGM 220738Z 2208/2306 00000KT 4SM BR SKC
      TEMPO 2208/2212 2SM BR
     FM221300 01005KT P6SM SKC=

Latest METAR

178
SAUS80 KWBC 220800
MTRMGM
METAR KMGM 220753Z AUTO 00000KT 5SM BR CLR 10/09 A3004 RMK AO2 SLP170
T01000089


USA.gov is the U.S. government's official web portal to all federal, state and local government web resources and services.